createdAt,value
2022-11-16T00:04:04.192Z,53.30228
2022-11-16T00:09:05.787Z,54.0325
2022-11-16T00:14:07.596Z,54.24092
2022-11-16T00:19:09.422Z,53.12406
2022-11-16T00:24:11.268Z,54.87545
2022-11-16T00:29:13.154Z,55.89713
2022-11-16T00:34:15.959Z,55.81778
2022-11-16T00:39:17.623Z,54.80902
2022-11-16T00:44:19.428Z,54.14721
2022-11-16T00:49:21.299Z,54.92789
2022-11-16T00:54:23.019Z,54.87146
2022-11-16T00:59:24.682Z,54.08464
2022-11-16T01:04:26.497Z,53.74275
2022-11-16T01:09:28.141Z,54.97654
2022-11-16T01:14:29.876Z,55.14177
2022-11-16T01:19:31.553Z,54.76121
2022-11-16T01:24:33.160Z,53.7773
2022-11-16T01:29:34.914Z,53.26585
2022-11-16T01:34:36.572Z,54.34926
2022-11-16T01:39:38.246Z,52.30558
2022-11-16T01:44:39.884Z,53.72988
2022-11-16T01:49:41.504Z,54.35264
2022-11-16T01:54:43.298Z,55.03159
2022-11-16T01:59:45.570Z,55.35862
2022-11-16T02:04:48.039Z,53.83303
2022-11-16T02:09:50.694Z,54.80304
2022-11-16T02:14:52.572Z,54.2652
2022-11-16T02:19:54.371Z,54.50875
2022-11-16T02:24:56.218Z,56.02571
2022-11-16T02:29:57.857Z,54.90689
2022-11-16T02:34:59.648Z,55.04968
2022-11-16T02:40:01.669Z,54.77723
2022-11-16T02:45:03.520Z,55.22392
2022-11-16T02:50:06.887Z,56.06009
2022-11-16T02:55:09.361Z,56.2068
2022-11-16T03:00:11.346Z,54.70522
2022-11-16T03:05:13.071Z,55.81226
2022-11-16T03:10:15.222Z,55.12044
2022-11-16T03:15:17.156Z,56.0571
2022-11-16T03:20:20.194Z,54.49472
2022-11-16T03:25:21.836Z,53.82243
2022-11-16T03:35:29.290Z,54.5241
2022-11-16T03:40:30.968Z,53.62406
2022-11-16T03:45:32.677Z,53.59315
2022-11-16T03:50:34.487Z,55.17884
2022-11-16T03:55:36.527Z,55.34683
2022-11-16T04:00:38.560Z,54.96028
2022-11-16T04:05:40.636Z,56.10805
2022-11-16T04:10:43.910Z,55.39264
2022-11-16T04:15:45.669Z,54.33771
2022-11-16T04:20:47.379Z,54.36051
2022-11-16T04:25:49.056Z,54.5669
2022-11-16T04:30:50.695Z,54.42973
2022-11-16T04:35:52.544Z,54.56015
2022-11-16T04:40:56.254Z,54.75611
2022-11-16T04:45:58.771Z,55.33483
2022-11-16T04:51:00.915Z,55.19555
2022-11-16T04:56:03.306Z,56.36327
2022-11-16T05:01:05.149Z,57.06139
2022-11-16T05:06:07.213Z,56.25612
2022-11-16T05:11:08.929Z,56.4338
2022-11-16T05:16:10.939Z,56.32393
2022-11-16T05:21:12.753Z,54.94553
2022-11-16T05:26:15.456Z,56.04362
2022-11-16T05:31:17.654Z,53.96199
2022-11-16T05:36:19.866Z,55.58767
2022-11-16T05:41:25.425Z,55.31483
2022-11-16T05:46:27.876Z,56.25925
2022-11-16T05:51:32.813Z,54.36705
2022-11-16T05:56:35.381Z,54.78856
2022-11-16T06:01:37.854Z,54.43051
2022-11-16T06:06:40.216Z,54.15938
2022-11-16T06:11:42.571Z,53.54113
2022-11-16T06:16:45.248Z,52.23684
2022-11-16T06:21:50.166Z,54.04525
2022-11-16T06:26:52.372Z,52.75865
2022-11-16T06:31:54.720Z,52.98668
2022-11-16T06:37:00.014Z,54.4536
2022-11-16T06:42:03.469Z,52.66529
2022-11-16T06:47:05.869Z,52.77275
2022-11-16T06:52:07.864Z,54.76064
2022-11-16T06:57:10.299Z,55.23779
2022-11-16T07:02:12.944Z,56.14968
2022-11-16T07:07:15.611Z,55.77116
2022-11-16T07:12:17.648Z,55.74827
2022-11-16T07:17:19.550Z,53.97896
2022-11-16T07:22:21.570Z,54.53428
2022-11-16T07:27:24.203Z,53.72434
2022-11-16T07:32:27.788Z,54.89221
2022-11-16T07:37:29.633Z,54.85103
2022-11-16T07:42:31.299Z,53.43092
2022-11-16T07:47:34.457Z,54.48376
2022-11-16T07:52:36.845Z,53.2262
2022-11-16T07:57:39.022Z,54.16734
2022-11-16T08:02:41.193Z,53.42383
2022-11-16T08:07:42.872Z,53.22931
2022-11-16T08:12:44.473Z,54.0528
2022-11-16T08:17:46.102Z,54.82746
2022-11-16T08:22:47.744Z,54.49876
2022-11-16T08:27:49.357Z,55.71757
2022-11-16T08:32:50.991Z,54.07072
2022-11-16T08:37:53.242Z,55.24017
2022-11-16T08:42:55.057Z,54.91987
2022-11-16T08:48:03.477Z,53.86405
2022-11-16T08:53:05.856Z,56.80051
2022-11-16T08:58:07.692Z,55.06044
2022-11-16T09:03:09.456Z,55.61702
2022-11-16T09:08:11.489Z,54.3136
2022-11-16T09:13:14.453Z,57.15555
2022-11-16T09:18:16.445Z,58.45401
2022-11-16T09:23:23.783Z,59.78663
2022-11-16T09:28:27.596Z,57.3798
2022-11-16T09:33:29.338Z,56.32423
2022-11-16T09:38:54.248Z,54.949
2022-11-16T09:44:05.952Z,55.3984
2022-11-16T09:49:16.865Z,56.24382
2022-11-16T09:54:19.573Z,57.1707
2022-11-16T09:59:21.220Z,55.67324
2022-11-16T10:04:23.070Z,54.23902
2022-11-16T10:09:24.691Z,53.76318
2022-11-16T10:14:26.329Z,53.77015
2022-11-16T10:19:28.108Z,53.21932
2022-11-16T10:24:29.914Z,55.53148
2022-11-16T10:29:31.655Z,55.24582
2022-11-16T10:34:33.289Z,55.54934
2022-11-16T10:39:35.012Z,55.75069
2022-11-16T10:44:36.712Z,54.98063
2022-11-16T10:49:38.350Z,55.56322
2022-11-16T10:54:44.083Z,56.89287
2022-11-16T10:59:46.405Z,57.65971
2022-11-16T11:04:48.125Z,56.95655
2022-11-16T11:09:49.802Z,54.4843
2022-11-16T11:14:51.423Z,54.73632
2022-11-16T11:19:53.197Z,54.20541
2022-11-16T11:24:54.851Z,56.25931
2022-11-16T11:29:56.911Z,56.75959
2022-11-16T11:34:58.612Z,57.00794
2022-11-16T11:40:00.199Z,56.12974
2022-11-16T11:45:01.839Z,54.87313
2022-11-16T11:50:03.726Z,53.66975
2022-11-16T11:55:05.375Z,53.71731
2022-11-16T12:00:07.108Z,55.27032
2022-11-16T12:05:08.770Z,55.52208
2022-11-16T12:10:10.432Z,55.52625
2022-11-16T12:15:12.174Z,56.02527
2022-11-16T12:20:13.824Z,55.36274
2022-11-16T12:25:15.502Z,55.81223
2022-11-16T12:30:17.125Z,56.02799
2022-11-16T12:35:18.818Z,54.76391
2022-11-16T12:40:20.439Z,55.44229
2022-11-16T12:45:22.139Z,54.92558
2022-11-16T12:50:23.797Z,54.94048
2022-11-16T12:55:27.211Z,56.17901
2022-11-16T13:00:31.191Z,55.752
2022-11-16T13:05:33.039Z,54.93689
2022-11-16T13:10:34.924Z,55.58279
2022-11-16T13:15:36.850Z,55.46214
2022-11-16T13:20:38.720Z,54.46623
2022-11-16T13:25:40.469Z,55.70939
2022-11-16T13:30:42.334Z,55.89583
2022-11-16T13:35:44.025Z,56.82518
2022-11-16T13:40:45.836Z,56.00133
2022-11-16T13:45:47.596Z,56.53643
2022-11-16T13:50:49.475Z,55.82157
2022-11-16T13:55:51.384Z,56.23894
2022-11-16T14:00:53.373Z,55.00073
2022-11-16T14:05:55.209Z,55.87801
2022-11-16T14:10:56.888Z,56.03894
2022-11-16T14:16:00.542Z,54.55963
2022-11-16T14:21:02.514Z,56.15821
2022-11-16T14:26:04.303Z,57.8733
2022-11-16T14:31:06.169Z,56.54221
2022-11-16T14:36:07.883Z,58.27921
2022-11-16T14:41:09.630Z,57.66278
2022-11-16T14:46:11.311Z,58.3091
2022-11-16T14:51:13.067Z,58.97319
2022-11-16T14:56:14.695Z,57.04262
2022-11-16T15:01:16.333Z,58.34249
2022-11-16T15:06:18.064Z,56.95353
2022-11-16T15:11:19.935Z,57.75216
2022-11-16T15:16:21.578Z,54.80795
2022-11-16T15:21:23.461Z,55.27679
2022-11-16T15:26:25.145Z,56.02214
2022-11-16T15:31:26.837Z,58.06584
2022-11-16T15:36:28.504Z,55.60377
2022-11-16T15:41:30.400Z,55.76
2022-11-16T15:46:32.213Z,54.68596
2022-11-16T15:51:34.077Z,56.37896
2022-11-16T15:56:36.002Z,56.79867
2022-11-16T16:01:37.770Z,57.28524
2022-11-16T16:06:39.489Z,55.93957
2022-11-16T16:11:41.186Z,55.35931
2022-11-16T16:16:42.871Z,55.34032
2022-11-16T16:21:44.470Z,55.22148
2022-11-16T16:26:46.293Z,54.70785
2022-11-16T16:31:47.955Z,53.92729
2022-11-16T16:36:49.539Z,54.56235
2022-11-16T16:41:51.165Z,53.85229
2022-11-16T16:46:53.645Z,52.78252
2022-11-16T16:51:57.363Z,53.79331
2022-11-16T16:56:59.577Z,54.38995
2022-11-16T17:02:01.296Z,54.06647
2022-11-16T17:07:03.880Z,53.46008
2022-11-16T17:12:06.256Z,53.82308
2022-11-16T17:17:08.056Z,56.63589
2022-11-16T17:22:09.971Z,56.95169
2022-11-16T17:27:12.499Z,55.54887
2022-11-16T17:32:14.432Z,55.32761
2022-11-16T17:37:17.006Z,56.25778
2022-11-16T17:42:19.091Z,54.18495
2022-11-16T17:47:20.910Z,53.81434
2022-11-16T17:52:22.870Z,53.66685
2022-11-16T17:57:24.791Z,54.72437
2022-11-16T18:02:26.509Z,55.29999
2022-11-16T18:07:28.877Z,55.65175
2022-11-16T18:12:30.737Z,55.50454
2022-11-16T18:17:32.428Z,55.85314
2022-11-16T18:22:34.186Z,55.39969
2022-11-16T18:27:35.892Z,55.18655
2022-11-16T18:32:37.570Z,55.39076
2022-11-16T18:37:39.385Z,54.40544
2022-11-16T18:42:41.010Z,55.52824
2022-11-16T18:47:42.904Z,55.24446
2022-11-16T18:52:46.506Z,57.10569
2022-11-16T18:57:48.245Z,53.58165
2022-11-16T19:02:57.003Z,54.81576
2022-11-16T19:07:58.732Z,57.54853
2022-11-16T19:13:00.431Z,55.64996
2022-11-16T19:18:20.734Z,57.15705
2022-11-16T19:23:23.383Z,55.39164
2022-11-16T19:28:25.001Z,55.50993
2022-11-16T19:33:26.659Z,55.81418
2022-11-16T19:38:28.385Z,54.86889
2022-11-16T19:43:30.250Z,54.44861
2022-11-16T19:48:32.066Z,54.05893
2022-11-16T19:53:33.982Z,53.17887
2022-11-16T19:58:36.213Z,54.03519
2022-11-16T20:03:38.262Z,53.29585
2022-11-16T20:08:40.251Z,52.98266
2022-11-16T20:13:41.970Z,53.49548
2022-11-16T20:18:43.776Z,53.0022
2022-11-16T20:23:45.432Z,52.08618
2022-11-16T20:28:47.199Z,52.36228
2022-11-16T20:33:48.928Z,52.53801
2022-11-16T20:38:50.633Z,54.47955
2022-11-16T20:43:52.343Z,52.93563
2022-11-16T20:48:54.036Z,54.7119
2022-11-16T20:53:55.695Z,53.63533
2022-11-16T20:58:57.357Z,55.3438
2022-11-16T21:03:59.137Z,52.22597
2022-11-16T21:09:00.793Z,52.89823
2022-11-16T21:14:02.745Z,51.60486
2022-11-16T21:19:04.575Z,50.85902
2022-11-16T21:24:06.381Z,51.026
2022-11-16T21:29:08.004Z,50.95268
2022-11-16T21:34:09.646Z,50.76362
2022-11-16T21:39:11.316Z,51.14863
2022-11-16T21:44:13.012Z,50.9638
2022-11-16T21:49:15.965Z,53.30774
2022-11-16T21:54:17.807Z,53.21256
2022-11-16T21:59:19.486Z,52.06888
2022-11-16T22:04:21.230Z,53.95336
2022-11-16T22:09:23.006Z,52.78711
2022-11-16T22:14:24.656Z,52.36564
2022-11-16T22:19:26.478Z,53.08164
2022-11-16T22:24:28.141Z,53.17933
2022-11-16T22:29:29.945Z,53.16565
2022-11-16T22:34:31.618Z,52.58038
2022-11-16T22:39:33.401Z,51.74399
2022-11-16T22:44:35.033Z,52.07501
2022-11-16T22:49:36.661Z,52.2872
2022-11-16T22:54:38.270Z,52.33005
2022-11-16T22:59:39.950Z,52.74471
2022-11-16T23:04:41.836Z,52.07112
2022-11-16T23:09:43.561Z,51.6656
2022-11-16T23:14:45.238Z,53.90655
2022-11-16T23:19:46.870Z,51.94883
2022-11-16T23:24:48.521Z,51.71502
2022-11-16T23:29:50.200Z,51.75575
2022-11-16T23:34:51.948Z,52.02616
2022-11-16T23:39:53.625Z,51.41602
2022-11-16T23:44:55.354Z,50.59962
2022-11-16T23:49:57.422Z,53.24945
2022-11-16T23:54:59.060Z,53.27883
